sensor_id;sensor_type;location;lat;lon;timestamp;P1;durP1;ratioP1;P2;durP2;ratioP2
4363;SDS011;15337;48.202;12.770;2022-07-17T00:00:33;4.87;;;4.57;;
4363;SDS011;15337;48.202;12.770;2022-07-17T00:03:00;4.90;;;4.60;;
4363;SDS011;15337;48.202;12.770;2022-07-17T00:05:27;5.30;;;5.00;;
4363;SDS011;15337;48.202;12.770;2022-07-17T00:07:54;5.87;;;5.30;;
4363;SDS011;15337;48.202;12.770;2022-07-17T00:10:21;5.70;;;5.17;;
4363;SDS011;15337;48.202;12.770;2022-07-17T00:12:48;4.43;;;4.23;;
4363;SDS011;15337;48.202;12.770;2022-07-17T00:15:15;6.00;;;5.47;;
4363;SDS011;15337;48.202;12.770;2022-07-17T00:17:43;6.03;;;4.70;;
4363;SDS011;15337;48.202;12.770;2022-07-17T00:20:10;5.20;;;4.90;;
4363;SDS011;15337;48.202;12.770;2022-07-17T00:22:37;4.30;;;4.00;;
4363;SDS011;15337;48.202;12.770;2022-07-17T00:25:05;4.53;;;4.33;;
4363;SDS011;15337;48.202;12.770;2022-07-17T00:27:33;5.70;;;5.20;;
4363;SDS011;15337;48.202;12.770;2022-07-17T00:30:00;6.63;;;6.33;;
4363;SDS011;15337;48.202;12.770;2022-07-17T00:32:27;6.10;;;5.53;;
4363;SDS011;15337;48.202;12.770;2022-07-17T00:34:55;6.77;;;5.17;;
4363;SDS011;15337;48.202;12.770;2022-07-17T00:37:22;5.83;;;5.37;;
4363;SDS011;15337;48.202;12.770;2022-07-17T00:39:49;8.87;;;5.60;;
4363;SDS011;15337;48.202;12.770;2022-07-17T00:42:16;5.83;;;5.33;;
4363;SDS011;15337;48.202;12.770;2022-07-17T00:44:44;6.30;;;5.67;;
4363;SDS011;15337;48.202;12.770;2022-07-17T00:47:11;5.77;;;5.37;;
4363;SDS011;15337;48.202;12.770;2022-07-17T00:49:39;5.00;;;4.60;;
4363;SDS011;15337;48.202;12.770;2022-07-17T00:52:08;5.17;;;4.70;;
4363;SDS011;15337;48.202;12.770;2022-07-17T00:54:36;5.60;;;5.10;;
4363;SDS011;15337;48.202;12.770;2022-07-17T00:57:04;4.73;;;4.53;;
4363;SDS011;15337;48.202;12.770;2022-07-17T00:59:33;6.03;;;5.73;;
4363;SDS011;15337;48.202;12.770;2022-07-17T01:02:02;5.97;;;5.57;;
4363;SDS011;15337;48.202;12.770;2022-07-17T01:04:30;5.63;;;5.33;;
4363;SDS011;15337;48.202;12.770;2022-07-17T01:06:57;5.80;;;5.37;;
4363;SDS011;15337;48.202;12.770;2022-07-17T01:09:26;6.30;;;5.70;;
4363;SDS011;15337;48.202;12.770;2022-07-17T01:11:53;6.90;;;6.30;;
4363;SDS011;15337;48.202;12.770;2022-07-17T01:14:21;12.70;;;6.83;;
4363;SDS011;15337;48.202;12.770;2022-07-17T01:16:49;7.90;;;7.20;;
4363;SDS011;15337;48.202;12.770;2022-07-17T01:19:17;6.90;;;6.30;;
4363;SDS011;15337;48.202;12.770;2022-07-17T01:21:46;7.20;;;6.60;;
4363;SDS011;15337;48.202;12.770;2022-07-17T01:24:14;11.90;;;7.30;;
4363;SDS011;15337;48.202;12.770;2022-07-17T01:26:42;8.37;;;7.50;;
4363;SDS011;15337;48.202;12.770;2022-07-17T01:29:11;8.00;;;7.40;;
4363;SDS011;15337;48.202;12.770;2022-07-17T01:31:39;8.20;;;7.70;;
4363;SDS011;15337;48.202;12.770;2022-07-17T01:34:07;9.73;;;7.10;;
4363;SDS011;15337;48.202;12.770;2022-07-17T01:36:35;7.07;;;6.50;;
4363;SDS011;15337;48.202;12.770;2022-07-17T01:39:04;7.13;;;6.50;;
4363;SDS011;15337;48.202;12.770;2022-07-17T01:41:31;6.67;;;6.27;;
4363;SDS011;15337;48.202;12.770;2022-07-17T01:43:59;6.73;;;6.10;;
4363;SDS011;15337;48.202;12.770;2022-07-17T01:46:26;7.03;;;6.53;;
4363;SDS011;15337;48.202;12.770;2022-07-17T01:48:52;7.40;;;5.40;;
4363;SDS011;15337;48.202;12.770;2022-07-17T01:51:19;10.87;;;7.00;;
4363;SDS011;15337;48.202;12.770;2022-07-17T01:53:47;6.50;;;5.90;;
4363;SDS011;15337;48.202;12.770;2022-07-17T01:56:15;6.70;;;6.10;;
4363;SDS011;15337;48.202;12.770;2022-07-17T01:58:42;6.77;;;6.20;;
4363;SDS011;15337;48.202;12.770;2022-07-17T02:01:09;6.27;;;5.90;;
4363;SDS011;15337;48.202;12.770;2022-07-17T02:03:36;7.67;;;7.07;;
4363;SDS011;15337;48.202;12.770;2022-07-17T02:06:03;7.63;;;6.53;;
4363;SDS011;15337;48.202;12.770;2022-07-17T02:08:30;6.37;;;5.87;;
4363;SDS011;15337;48.202;12.770;2022-07-17T02:10:57;6.77;;;6.03;;
4363;SDS011;15337;48.202;12.770;2022-07-17T02:13:25;6.43;;;5.63;;
4363;SDS011;15337;48.202;12.770;2022-07-17T02:15:52;6.70;;;6.30;;
4363;SDS011;15337;48.202;12.770;2022-07-17T02:18:19;6.40;;;6.00;;
4363;SDS011;15337;48.202;12.770;2022-07-17T02:20:46;6.70;;;6.30;;
4363;SDS011;15337;48.202;12.770;2022-07-17T02:23:14;7.10;;;6.40;;
4363;SDS011;15337;48.202;12.770;2022-07-17T02:25:42;6.57;;;6.17;;
4363;SDS011;15337;48.202;12.770;2022-07-17T02:28:09;6.97;;;6.47;;
4363;SDS011;15337;48.202;12.770;2022-07-17T02:30:37;10.70;;;8.10;;
4363;SDS011;15337;48.202;12.770;2022-07-17T02:33:04;7.97;;;7.50;;
4363;SDS011;15337;48.202;12.770;2022-07-17T02:35:32;7.90;;;7.37;;
4363;SDS011;15337;48.202;12.770;2022-07-17T02:37:59;8.50;;;7.90;;
4363;SDS011;15337;48.202;12.770;2022-07-17T02:40:26;9.47;;;8.57;;
4363;SDS011;15337;48.202;12.770;2022-07-17T02:42:53;8.50;;;7.83;;
4363;SDS011;15337;48.202;12.770;2022-07-17T02:45:20;9.13;;;8.40;;
4363;SDS011;15337;48.202;12.770;2022-07-17T02:47:51;9.23;;;8.63;;
4363;SDS011;15337;48.202;12.770;2022-07-17T02:50:19;8.57;;;8.10;;
4363;SDS011;15337;48.202;12.770;2022-07-17T02:52:46;9.60;;;8.80;;
4363;SDS011;15337;48.202;12.770;2022-07-17T02:55:14;8.70;;;8.00;;
4363;SDS011;15337;48.202;12.770;2022-07-17T02:57:42;6.83;;;6.43;;
4363;SDS011;15337;48.202;12.770;2022-07-17T03:00:12;6.90;;;6.60;;
4363;SDS011;15337;48.202;12.770;2022-07-17T03:02:41;6.90;;;6.57;;
4363;SDS011;15337;48.202;12.770;2022-07-17T03:05:10;8.73;;;7.33;;
4363;SDS011;15337;48.202;12.770;2022-07-17T03:07:38;6.43;;;6.03;;
4363;SDS011;15337;48.202;12.770;2022-07-17T03:10:05;6.27;;;5.87;;
4363;SDS011;15337;48.202;12.770;2022-07-17T03:12:33;7.00;;;6.70;;
4363;SDS011;15337;48.202;12.770;2022-07-17T03:15:00;6.70;;;6.30;;
4363;SDS011;15337;48.202;12.770;2022-07-17T03:17:27;10.23;;;5.73;;
4363;SDS011;15337;48.202;12.770;2022-07-17T03:19:54;7.47;;;6.97;;
4363;SDS011;15337;48.202;12.770;2022-07-17T03:22:22;6.50;;;6.00;;
4363;SDS011;15337;48.202;12.770;2022-07-17T03:24:49;8.00;;;7.47;;
4363;SDS011;15337;48.202;12.770;2022-07-17T03:27:16;6.90;;;6.10;;
4363;SDS011;15337;48.202;12.770;2022-07-17T03:29:43;7.67;;;7.27;;
4363;SDS011;15337;48.202;12.770;2022-07-17T03:32:11;6.20;;;5.90;;
4363;SDS011;15337;48.202;12.770;2022-07-17T03:34:38;7.67;;;6.97;;
4363;SDS011;15337;48.202;12.770;2022-07-17T03:37:05;6.20;;;5.90;;
4363;SDS011;15337;48.202;12.770;2022-07-17T03:39:33;7.47;;;6.97;;
4363;SDS011;15337;48.202;12.770;2022-07-17T03:42:00;7.40;;;6.90;;
4363;SDS011;15337;48.202;12.770;2022-07-17T03:44:27;6.10;;;5.80;;
4363;SDS011;15337;48.202;12.770;2022-07-17T03:46:54;7.73;;;7.10;;
4363;SDS011;15337;48.202;12.770;2022-07-17T03:49:21;5.80;;;5.40;;
4363;SDS011;15337;48.202;12.770;2022-07-17T03:51:49;7.97;;;7.33;;
4363;SDS011;15337;48.202;12.770;2022-07-17T03:54:16;7.83;;;7.23;;
4363;SDS011;15337;48.202;12.770;2022-07-17T03:56:45;15.27;;;6.13;;
4363;SDS011;15337;48.202;12.770;2022-07-17T03:59:12;7.50;;;7.00;;
4363;SDS011;15337;48.202;12.770;2022-07-17T04:01:39;13.17;;;6.40;;
4363;SDS011;15337;48.202;12.770;2022-07-17T04:04:06;7.33;;;6.83;;
4363;SDS011;15337;48.202;12.770;2022-07-17T04:06:33;7.80;;;7.20;;
4363;SDS011;15337;48.202;12.770;2022-07-17T04:09:00;7.70;;;7.20;;
4363;SDS011;15337;48.202;12.770;2022-07-17T04:11:27;7.87;;;7.27;;
4363;SDS011;15337;48.202;12.770;2022-07-17T04:13:55;8.40;;;7.83;;
4363;SDS011;15337;48.202;12.770;2022-07-17T04:16:22;8.17;;;7.33;;
4363;SDS011;15337;48.202;12.770;2022-07-17T04:18:49;7.27;;;6.63;;
4363;SDS011;15337;48.202;12.770;2022-07-17T04:21:16;7.07;;;6.67;;
4363;SDS011;15337;48.202;12.770;2022-07-17T04:23:43;7.40;;;6.90;;
4363;SDS011;15337;48.202;12.770;2022-07-17T04:26:09;6.50;;;6.20;;
4363;SDS011;15337;48.202;12.770;2022-07-17T04:28:36;8.00;;;7.40;;
4363;SDS011;15337;48.202;12.770;2022-07-17T04:31:05;8.20;;;6.90;;
4363;SDS011;15337;48.202;12.770;2022-07-17T04:33:32;6.50;;;6.10;;
4363;SDS011;15337;48.202;12.770;2022-07-17T04:35:59;7.97;;;7.10;;
4363;SDS011;15337;48.202;12.770;2022-07-17T04:38:26;7.27;;;6.70;;
4363;SDS011;15337;48.202;12.770;2022-07-17T04:40:53;6.80;;;6.40;;
4363;SDS011;15337;48.202;12.770;2022-07-17T04:43:20;21.93;;;7.57;;
4363;SDS011;15337;48.202;12.770;2022-07-17T04:45:47;6.87;;;6.47;;
4363;SDS011;15337;48.202;12.770;2022-07-17T04:48:15;7.30;;;6.70;;
4363;SDS011;15337;48.202;12.770;2022-07-17T04:50:42;7.97;;;6.40;;
4363;SDS011;15337;48.202;12.770;2022-07-17T04:53:09;8.60;;;7.10;;
4363;SDS011;15337;48.202;12.770;2022-07-17T04:55:36;7.53;;;7.13;;
4363;SDS011;15337;48.202;12.770;2022-07-17T04:58:03;8.17;;;7.60;;
4363;SDS011;15337;48.202;12.770;2022-07-17T05:00:31;7.93;;;7.27;;
4363;SDS011;15337;48.202;12.770;2022-07-17T05:02:58;12.43;;;6.60;;
4363;SDS011;15337;48.202;12.770;2022-07-17T05:05:27;8.67;;;8.07;;
4363;SDS011;15337;48.202;12.770;2022-07-17T05:07:54;7.43;;;7.03;;
4363;SDS011;15337;48.202;12.770;2022-07-17T05:10:21;8.10;;;7.70;;
4363;SDS011;15337;48.202;12.770;2022-07-17T05:12:48;8.43;;;7.93;;
4363;SDS011;15337;48.202;12.770;2022-07-17T05:15:15;7.87;;;7.40;;
4363;SDS011;15337;48.202;12.770;2022-07-17T05:17:42;8.20;;;7.60;;
4363;SDS011;15337;48.202;12.770;2022-07-17T05:20:10;8.77;;;8.17;;
4363;SDS011;15337;48.202;12.770;2022-07-17T05:22:38;7.53;;;7.13;;
4363;SDS011;15337;48.202;12.770;2022-07-17T05:25:06;9.90;;;9.10;;
4363;SDS011;15337;48.202;12.770;2022-07-17T05:27:33;7.90;;;7.40;;
4363;SDS011;15337;48.202;12.770;2022-07-17T05:30:00;9.20;;;8.67;;
4363;SDS011;15337;48.202;12.770;2022-07-17T05:32:27;9.10;;;8.30;;
4363;SDS011;15337;48.202;12.770;2022-07-17T05:34:54;8.30;;;7.83;;
4363;SDS011;15337;48.202;12.770;2022-07-17T05:37:21;8.23;;;7.83;;
4363;SDS011;15337;48.202;12.770;2022-07-17T05:39:49;10.97;;;10.17;;
4363;SDS011;15337;48.202;12.770;2022-07-17T05:42:16;10.67;;;9.60;;
4363;SDS011;15337;48.202;12.770;2022-07-17T05:44:43;11.03;;;10.23;;
4363;SDS011;15337;48.202;12.770;2022-07-17T05:47:10;14.10;;;11.90;;
4363;SDS011;15337;48.202;12.770;2022-07-17T05:49:37;13.13;;;11.80;;
4363;SDS011;15337;48.202;12.770;2022-07-17T05:52:04;10.70;;;9.90;;
4363;SDS011;15337;48.202;12.770;2022-07-17T05:54:32;11.47;;;9.20;;
4363;SDS011;15337;48.202;12.770;2022-07-17T05:57:00;9.33;;;8.60;;
4363;SDS011;15337;48.202;12.770;2022-07-17T05:59:27;8.73;;;8.13;;
4363;SDS011;15337;48.202;12.770;2022-07-17T06:01:54;9.50;;;8.80;;
4363;SDS011;15337;48.202;12.770;2022-07-17T06:04:21;8.17;;;7.60;;
4363;SDS011;15337;48.202;12.770;2022-07-17T06:06:48;7.90;;;7.40;;
4363;SDS011;15337;48.202;12.770;2022-07-17T06:09:15;7.40;;;7.00;;
4363;SDS011;15337;48.202;12.770;2022-07-17T06:11:42;6.23;;;5.83;;
4363;SDS011;15337;48.202;12.770;2022-07-17T06:14:10;8.07;;;7.37;;
4363;SDS011;15337;48.202;12.770;2022-07-17T06:16:37;8.90;;;8.10;;
4363;SDS011;15337;48.202;12.770;2022-07-17T06:19:04;6.93;;;6.30;;
4363;SDS011;15337;48.202;12.770;2022-07-17T06:21:31;7.07;;;6.68;;
4363;SDS011;15337;48.202;12.770;2022-07-17T06:23:58;8.10;;;7.28;;
4363;SDS011;15337;48.202;12.770;2022-07-17T06:26:25;6.57;;;6.18;;
4363;SDS011;15337;48.202;12.770;2022-07-17T06:28:51;7.22;;;6.60;;
4363;SDS011;15337;48.202;12.770;2022-07-17T06:31:20;5.95;;;5.65;;
4363;SDS011;15337;48.202;12.770;2022-07-17T06:33:48;6.03;;;5.72;;
4363;SDS011;15337;48.202;12.770;2022-07-17T06:36:15;6.50;;;5.43;;
4363;SDS011;15337;48.202;12.770;2022-07-17T06:38:42;6.13;;;5.72;;
4363;SDS011;15337;48.202;12.770;2022-07-17T06:41:09;7.97;;;5.65;;
4363;SDS011;15337;48.202;12.770;2022-07-17T06:43:36;5.60;;;5.13;;
4363;SDS011;15337;48.202;12.770;2022-07-17T06:46:03;5.70;;;5.15;;
4363;SDS011;15337;48.202;12.770;2022-07-17T06:48:31;5.18;;;4.88;;
4363;SDS011;15337;48.202;12.770;2022-07-17T06:50:58;4.43;;;4.13;;
4363;SDS011;15337;48.202;12.770;2022-07-17T06:53:25;7.07;;;4.78;;
4363;SDS011;15337;48.202;12.770;2022-07-17T06:55:52;5.28;;;4.82;;
4363;SDS011;15337;48.202;12.770;2022-07-17T06:58:19;5.18;;;4.78;;
4363;SDS011;15337;48.202;12.770;2022-07-17T07:00:46;4.28;;;3.97;;
4363;SDS011;15337;48.202;12.770;2022-07-17T07:03:13;4.70;;;4.40;;
4363;SDS011;15337;48.202;12.770;2022-07-17T07:05:41;4.18;;;3.88;;
4363;SDS011;15337;48.202;12.770;2022-07-17T07:08:08;4.22;;;4.03;;
4363;SDS011;15337;48.202;12.770;2022-07-17T07:10:35;4.55;;;3.88;;
4363;SDS011;15337;48.202;12.770;2022-07-17T07:13:02;4.30;;;4.10;;
4363;SDS011;15337;48.202;12.770;2022-07-17T07:15:29;5.53;;;4.07;;
4363;SDS011;15337;48.202;12.770;2022-07-17T07:17:56;4.32;;;4.03;;
4363;SDS011;15337;48.202;12.770;2022-07-17T07:20:23;9.48;;;3.95;;
4363;SDS011;15337;48.202;12.770;2022-07-17T07:22:52;3.95;;;3.65;;
4363;SDS011;15337;48.202;12.770;2022-07-17T07:25:19;11.32;;;5.03;;
4363;SDS011;15337;48.202;12.770;2022-07-17T07:27:46;3.92;;;3.70;;
4363;SDS011;15337;48.202;12.770;2022-07-17T07:30:13;3.92;;;3.72;;
4363;SDS011;15337;48.202;12.770;2022-07-17T07:32:40;6.00;;;4.18;;
4363;SDS011;15337;48.202;12.770;2022-07-17T07:35:08;4.68;;;4.28;;
4363;SDS011;15337;48.202;12.770;2022-07-17T07:37:35;4.22;;;3.80;;
4363;SDS011;15337;48.202;12.770;2022-07-17T07:40:04;8.73;;;4.50;;
4363;SDS011;15337;48.202;12.770;2022-07-17T07:42:32;5.65;;;3.95;;
4363;SDS011;15337;48.202;12.770;2022-07-17T07:44:59;6.20;;;4.20;;
4363;SDS011;15337;48.202;12.770;2022-07-17T07:47:26;4.35;;;4.15;;
4363;SDS011;15337;48.202;12.770;2022-07-17T07:49:53;4.20;;;4.00;;
4363;SDS011;15337;48.202;12.770;2022-07-17T07:52:20;3.80;;;3.55;;
4363;SDS011;15337;48.202;12.770;2022-07-17T07:54:47;3.72;;;3.53;;
4363;SDS011;15337;48.202;12.770;2022-07-17T07:57:15;7.22;;;3.97;;
4363;SDS011;15337;48.202;12.770;2022-07-17T07:59:42;9.13;;;3.75;;
4363;SDS011;15337;48.202;12.770;2022-07-17T08:02:09;10.48;;;3.85;;
4363;SDS011;15337;48.202;12.770;2022-07-17T08:04:36;3.67;;;3.47;;
4363;SDS011;15337;48.202;12.770;2022-07-17T08:07:03;3.72;;;3.53;;
4363;SDS011;15337;48.202;12.770;2022-07-17T08:09:30;4.80;;;4.40;;
4363;SDS011;15337;48.202;12.770;2022-07-17T08:11:57;4.40;;;4.20;;
4363;SDS011;15337;48.202;12.770;2022-07-17T08:14:25;3.95;;;3.75;;
4363;SDS011;15337;48.202;12.770;2022-07-17T08:16:52;3.70;;;3.50;;
4363;SDS011;15337;48.202;12.770;2022-07-17T08:19:19;4.53;;;4.07;;
4363;SDS011;15337;48.202;12.770;2022-07-17T08:21:46;4.80;;;3.50;;
4363;SDS011;15337;48.202;12.770;2022-07-17T08:24:13;3.58;;;3.13;;
4363;SDS011;15337;48.202;12.770;2022-07-17T08:26:41;4.18;;;3.88;;
4363;SDS011;15337;48.202;12.770;2022-07-17T08:29:08;3.78;;;3.58;;
4363;SDS011;15337;48.202;12.770;2022-07-17T08:31:36;3.70;;;3.50;;
4363;SDS011;15337;48.202;12.770;2022-07-17T08:34:03;3.90;;;3.60;;
4363;SDS011;15337;48.202;12.770;2022-07-17T08:36:30;7.22;;;3.00;;
4363;SDS011;15337;48.202;12.770;2022-07-17T08:38:57;5.70;;;3.80;;
4363;SDS011;15337;48.202;12.770;2022-07-17T08:41:24;3.22;;;3.03;;
4363;SDS011;15337;48.202;12.770;2022-07-17T08:43:51;6.88;;;3.30;;
4363;SDS011;15337;48.202;12.770;2022-07-17T08:46:19;3.22;;;3.03;;
4363;SDS011;15337;48.202;12.770;2022-07-17T08:48:52;2.72;;;2.53;;
4363;SDS011;15337;48.202;12.770;2022-07-17T08:51:22;3.13;;;2.80;;
4363;SDS011;15337;48.202;12.770;2022-07-17T08:53:51;3.17;;;2.97;;
4363;SDS011;15337;48.202;12.770;2022-07-17T08:56:18;5.45;;;3.10;;
4363;SDS011;15337;48.202;12.770;2022-07-17T08:58:45;5.18;;;3.78;;
4363;SDS011;15337;48.202;12.770;2022-07-17T09:01:13;3.60;;;3.30;;
4363;SDS011;15337;48.202;12.770;2022-07-17T09:03:41;3.55;;;3.30;;
4363;SDS011;15337;48.202;12.770;2022-07-17T09:06:20;4.18;;;2.63;;
4363;SDS011;15337;48.202;12.770;2022-07-17T09:08:47;3.17;;;2.88;;
4363;SDS011;15337;48.202;12.770;2022-07-17T09:11:14;3.83;;;3.10;;
4363;SDS011;15337;48.202;12.770;2022-07-17T09:13:42;3.03;;;2.83;;
4363;SDS011;15337;48.202;12.770;2022-07-17T09:16:12;3.30;;;3.10;;
4363;SDS011;15337;48.202;12.770;2022-07-17T09:18:42;4.15;;;3.15;;
4363;SDS011;15337;48.202;12.770;2022-07-17T09:21:15;4.60;;;3.00;;
4363;SDS011;15337;48.202;12.770;2022-07-17T09:23:45;3.45;;;2.45;;
4363;SDS011;15337;48.202;12.770;2022-07-17T09:26:12;3.15;;;2.95;;
4363;SDS011;15337;48.202;12.770;2022-07-17T09:28:44;5.47;;;3.45;;
4363;SDS011;15337;48.202;12.770;2022-07-17T09:31:11;2.88;;;2.67;;
4363;SDS011;15337;48.202;12.770;2022-07-17T09:33:40;2.80;;;2.60;;
4363;SDS011;15337;48.202;12.770;2022-07-17T09:36:07;4.05;;;2.83;;
4363;SDS011;15337;48.202;12.770;2022-07-17T09:38:39;4.22;;;2.90;;
4363;SDS011;15337;48.202;12.770;2022-07-17T09:41:09;3.03;;;2.83;;
4363;SDS011;15337;48.202;12.770;2022-07-17T09:43:42;3.40;;;3.08;;
4363;SDS011;15337;48.202;12.770;2022-07-17T09:46:11;7.63;;;2.67;;
4363;SDS011;15337;48.202;12.770;2022-07-17T09:48:41;2.78;;;2.58;;
4363;SDS011;15337;48.202;12.770;2022-07-17T09:51:13;2.72;;;2.58;;
4363;SDS011;15337;48.202;12.770;2022-07-17T09:53:44;2.60;;;2.50;;
4363;SDS011;15337;48.202;12.770;2022-07-17T09:56:16;3.17;;;2.67;;
4363;SDS011;15337;48.202;12.770;2022-07-17T09:58:45;4.40;;;3.22;;
4363;SDS011;15337;48.202;12.770;2022-07-17T10:01:15;3.00;;;2.80;;
4363;SDS011;15337;48.202;12.770;2022-07-17T10:03:42;3.10;;;2.80;;
4363;SDS011;15337;48.202;12.770;2022-07-17T10:06:10;2.90;;;2.70;;
4363;SDS011;15337;48.202;12.770;2022-07-17T10:08:37;3.38;;;3.08;;
4363;SDS011;15337;48.202;12.770;2022-07-17T10:11:05;3.08;;;2.88;;
4363;SDS011;15337;48.202;12.770;2022-07-17T10:13:34;3.28;;;3.08;;
4363;SDS011;15337;48.202;12.770;2022-07-17T10:16:02;3.20;;;3.00;;
4363;SDS011;15337;48.202;12.770;2022-07-17T10:18:34;3.00;;;2.80;;
4363;SDS011;15337;48.202;12.770;2022-07-17T10:21:05;4.10;;;3.80;;
4363;SDS011;15337;48.202;12.770;2022-07-17T10:23:36;2.80;;;2.60;;
4363;SDS011;15337;48.202;12.770;2022-07-17T10:26:03;3.28;;;3.05;;
4363;SDS011;15337;48.202;12.770;2022-07-17T10:28:39;5.28;;;2.75;;
4363;SDS011;15337;48.202;12.770;2022-07-17T10:31:09;3.33;;;3.13;;
4363;SDS011;15337;48.202;12.770;2022-07-17T10:33:54;3.67;;;2.83;;
4363;SDS011;15337;48.202;12.770;2022-07-17T10:36:31;6.70;;;3.38;;
4363;SDS011;15337;48.202;12.770;2022-07-17T10:39:09;7.10;;;2.60;;
4363;SDS011;15337;48.202;12.770;2022-07-17T10:41:37;3.35;;;2.65;;
4363;SDS011;15337;48.202;12.770;2022-07-17T10:44:05;2.92;;;2.72;;
4363;SDS011;15337;48.202;12.770;2022-07-17T10:46:33;2.42;;;2.33;;
4363;SDS011;15337;48.202;12.770;2022-07-17T10:49:01;3.10;;;2.90;;
4363;SDS011;15337;48.202;12.770;2022-07-17T10:51:29;2.08;;;1.98;;
4363;SDS011;15337;48.202;12.770;2022-07-17T10:53:56;2.75;;;2.55;;
4363;SDS011;15337;48.202;12.770;2022-07-17T10:56:24;3.05;;;2.85;;
4363;SDS011;15337;48.202;12.770;2022-07-17T10:58:51;2.55;;;2.45;;
4363;SDS011;15337;48.202;12.770;2022-07-17T11:01:20;2.80;;;2.65;;
4363;SDS011;15337;48.202;12.770;2022-07-17T11:03:48;2.72;;;2.40;;
4363;SDS011;15337;48.202;12.770;2022-07-17T11:06:17;6.25;;;2.42;;
4363;SDS011;15337;48.202;12.770;2022-07-17T11:08:46;2.45;;;2.35;;
4363;SDS011;15337;48.202;12.770;2022-07-17T11:11:15;3.33;;;2.47;;
4363;SDS011;15337;48.202;12.770;2022-07-17T11:13:44;3.28;;;2.55;;
4363;SDS011;15337;48.202;12.770;2022-07-17T11:16:11;3.42;;;2.70;;
4363;SDS011;15337;48.202;12.770;2022-07-17T11:18:46;3.10;;;2.50;;
4363;SDS011;15337;48.202;12.770;2022-07-17T11:21:13;2.95;;;2.85;;
4363;SDS011;15337;48.202;12.770;2022-07-17T11:23:49;2.67;;;2.47;;
4363;SDS011;15337;48.202;12.770;2022-07-17T11:26:17;3.58;;;2.95;;
4363;SDS011;15337;48.202;12.770;2022-07-17T11:28:45;2.85;;;2.65;;
4363;SDS011;15337;48.202;12.770;2022-07-17T11:31:17;4.63;;;2.83;;
4363;SDS011;15337;48.202;12.770;2022-07-17T11:33:51;2.95;;;2.70;;
4363;SDS011;15337;48.202;12.770;2022-07-17T11:36:23;2.75;;;2.55;;
4363;SDS011;15337;48.202;12.770;2022-07-17T11:38:52;2.67;;;2.47;;
4363;SDS011;15337;48.202;12.770;2022-07-17T11:41:20;2.92;;;2.50;;
4363;SDS011;15337;48.202;12.770;2022-07-17T11:43:47;2.63;;;2.20;;
4363;SDS011;15337;48.202;12.770;2022-07-17T11:46:14;2.15;;;2.05;;
4363;SDS011;15337;48.202;12.770;2022-07-17T11:48:42;3.28;;;2.70;;
4363;SDS011;15337;48.202;12.770;2022-07-17T11:51:11;2.42;;;2.25;;
4363;SDS011;15337;48.202;12.770;2022-07-17T11:53:39;2.45;;;2.35;;
4363;SDS011;15337;48.202;12.770;2022-07-17T11:56:06;2.42;;;2.30;;
4363;SDS011;15337;48.202;12.770;2022-07-17T11:58:40;6.97;;;2.40;;
4363;SDS011;15337;48.202;12.770;2022-07-17T12:01:09;3.70;;;2.08;;
4363;SDS011;15337;48.202;12.770;2022-07-17T12:03:36;4.68;;;2.03;;
4363;SDS011;15337;48.202;12.770;2022-07-17T12:06:03;2.22;;;2.13;;
4363;SDS011;15337;48.202;12.770;2022-07-17T12:08:32;2.92;;;2.47;;
4363;SDS011;15337;48.202;12.770;2022-07-17T12:11:00;2.65;;;2.45;;
4363;SDS011;15337;48.202;12.770;2022-07-17T12:13:41;2.33;;;2.22;;
4363;SDS011;15337;48.202;12.770;2022-07-17T12:16:19;3.22;;;3.03;;
4363;SDS011;15337;48.202;12.770;2022-07-17T12:18:57;7.57;;;2.40;;
4363;SDS011;15337;48.202;12.770;2022-07-17T12:21:28;3.22;;;2.30;;
4363;SDS011;15337;48.202;12.770;2022-07-17T12:23:58;3.13;;;2.92;;
4363;SDS011;15337;48.202;12.770;2022-07-17T12:26:27;3.33;;;2.40;;
4363;SDS011;15337;48.202;12.770;2022-07-17T12:28:55;2.90;;;2.70;;
4363;SDS011;15337;48.202;12.770;2022-07-17T12:31:22;2.45;;;2.30;;
4363;SDS011;15337;48.202;12.770;2022-07-17T12:33:50;2.58;;;2.35;;
4363;SDS011;15337;48.202;12.770;2022-07-17T12:36:18;2.35;;;2.15;;
4363;SDS011;15337;48.202;12.770;2022-07-17T12:38:46;2.60;;;2.50;;
4363;SDS011;15337;48.202;12.770;2022-07-17T12:41:14;4.90;;;3.03;;
4363;SDS011;15337;48.202;12.770;2022-07-17T12:43:42;2.30;;;2.17;;
4363;SDS011;15337;48.202;12.770;2022-07-17T12:46:09;3.22;;;1.75;;
4363;SDS011;15337;48.202;12.770;2022-07-17T12:48:36;3.63;;;3.33;;
4363;SDS011;15337;48.202;12.770;2022-07-17T12:51:05;2.30;;;2.20;;
4363;SDS011;15337;48.202;12.770;2022-07-17T12:53:33;2.55;;;2.33;;
4363;SDS011;15337;48.202;12.770;2022-07-17T12:56:01;2.58;;;2.47;;
4363;SDS011;15337;48.202;12.770;2022-07-17T12:58:30;5.40;;;2.08;;
4363;SDS011;15337;48.202;12.770;2022-07-17T13:00:57;2.47;;;2.38;;
4363;SDS011;15337;48.202;12.770;2022-07-17T13:03:24;2.60;;;2.40;;
4363;SDS011;15337;48.202;12.770;2022-07-17T13:05:51;2.85;;;2.40;;
4363;SDS011;15337;48.202;12.770;2022-07-17T13:08:18;2.70;;;2.50;;
4363;SDS011;15337;48.202;12.770;2022-07-17T13:10:45;2.42;;;2.33;;
4363;SDS011;15337;48.202;12.770;2022-07-17T13:13:12;2.35;;;2.17;;
4363;SDS011;15337;48.202;12.770;2022-07-17T13:15:40;2.72;;;2.53;;
4363;SDS011;15337;48.202;12.770;2022-07-17T13:18:07;3.90;;;2.72;;
4363;SDS011;15337;48.202;12.770;2022-07-17T13:20:34;2.38;;;2.17;;
4363;SDS011;15337;48.202;12.770;2022-07-17T13:23:01;2.65;;;2.38;;
4363;SDS011;15337;48.202;12.770;2022-07-17T13:25:29;2.60;;;2.50;;
4363;SDS011;15337;48.202;12.770;2022-07-17T13:27:56;2.88;;;2.67;;
4363;SDS011;15337;48.202;12.770;2022-07-17T13:30:23;2.92;;;2.50;;
4363;SDS011;15337;48.202;12.770;2022-07-17T13:32:51;3.83;;;2.47;;
4363;SDS011;15337;48.202;12.770;2022-07-17T13:35:19;3.15;;;2.15;;
4363;SDS011;15337;48.202;12.770;2022-07-17T13:37:46;2.10;;;2.00;;
4363;SDS011;15337;48.202;12.770;2022-07-17T13:40:13;2.10;;;2.00;;
4363;SDS011;15337;48.202;12.770;2022-07-17T13:42:40;2.55;;;2.35;;
4363;SDS011;15337;48.202;12.770;2022-07-17T13:45:07;2.10;;;2.00;;
4363;SDS011;15337;48.202;12.770;2022-07-17T13:47:35;1.90;;;1.80;;
4363;SDS011;15337;48.202;12.770;2022-07-17T13:50:04;2.33;;;1.95;;
4363;SDS011;15337;48.202;12.770;2022-07-17T13:52:31;2.90;;;2.40;;
4363;SDS011;15337;48.202;12.770;2022-07-17T13:54:58;2.28;;;2.10;;
4363;SDS011;15337;48.202;12.770;2022-07-17T13:57:25;1.90;;;1.80;;
4363;SDS011;15337;48.202;12.770;2022-07-17T13:59:52;4.15;;;2.83;;
4363;SDS011;15337;48.202;12.770;2022-07-17T14:02:19;1.85;;;1.75;;
4363;SDS011;15337;48.202;12.770;2022-07-17T14:04:47;4.95;;;2.65;;
4363;SDS011;15337;48.202;12.770;2022-07-17T14:07:15;3.53;;;2.60;;
4363;SDS011;15337;48.202;12.770;2022-07-17T14:09:42;1.88;;;1.77;;
4363;SDS011;15337;48.202;12.770;2022-07-17T14:12:09;2.00;;;1.90;;
4363;SDS011;15337;48.202;12.770;2022-07-17T14:14:36;2.35;;;2.10;;
4363;SDS011;15337;48.202;12.770;2022-07-17T14:17:03;2.10;;;2.00;;
4363;SDS011;15337;48.202;12.770;2022-07-17T14:19:30;1.75;;;1.65;;
4363;SDS011;15337;48.202;12.770;2022-07-17T14:21:57;2.22;;;1.85;;
4363;SDS011;15337;48.202;12.770;2022-07-17T14:24:25;3.55;;;2.38;;
4363;SDS011;15337;48.202;12.770;2022-07-17T14:26:52;4.70;;;2.17;;
4363;SDS011;15337;48.202;12.770;2022-07-17T14:29:19;2.03;;;1.92;;
4363;SDS011;15337;48.202;12.770;2022-07-17T14:31:46;2.10;;;2.00;;
4363;SDS011;15337;48.202;12.770;2022-07-17T14:34:13;1.90;;;1.80;;
4363;SDS011;15337;48.202;12.770;2022-07-17T14:36:41;1.98;;;1.88;;
4363;SDS011;15337;48.202;12.770;2022-07-17T14:39:08;2.88;;;1.85;;
4363;SDS011;15337;48.202;12.770;2022-07-17T14:41:38;2.53;;;2.33;;
4363;SDS011;15337;48.202;12.770;2022-07-17T14:44:05;2.15;;;2.00;;
4363;SDS011;15337;48.202;12.770;2022-07-17T14:46:33;1.98;;;1.88;;
4363;SDS011;15337;48.202;12.770;2022-07-17T14:48:59;2.13;;;1.95;;
4363;SDS011;15337;48.202;12.770;2022-07-17T14:51:26;1.75;;;1.65;;